createdAt,value
2023-01-11T00:00:40.358Z,-8.57
2023-01-11T00:03:07.563Z,-8.62
2023-01-11T00:05:39.459Z,-8.58
2023-01-11T00:08:07.191Z,-8.58
2023-01-11T00:10:34.325Z,-8.54
2023-01-11T00:13:01.784Z,-8.53
2023-01-11T00:15:28.986Z,-8.57
2023-01-11T00:17:57.852Z,-8.64
2023-01-11T00:20:25.297Z,-8.63
2023-01-11T00:22:52.492Z,-8.44
2023-01-11T00:25:19.680Z,-8.35
2023-01-11T00:27:50.067Z,-8.31
2023-01-11T00:30:18.262Z,-8.38
2023-01-11T00:32:45.805Z,-8.56
2023-01-11T00:35:13.281Z,-8.59
2023-01-11T00:37:40.516Z,-8.72
2023-01-11T00:40:08.845Z,-8.42
2023-01-11T00:42:54.616Z,-8.60
2023-01-11T00:45:40.518Z,-8.26
2023-01-11T00:48:08.084Z,-8.27
2023-01-11T00:50:36.631Z,-8.32
2023-01-11T00:53:04.253Z,-8.20
2023-01-11T00:55:34.215Z,-8.16
2023-01-11T00:58:01.766Z,-8.23
2023-01-11T01:00:29.238Z,-8.37
2023-01-11T01:02:56.740Z,-8.50
2023-01-11T01:05:24.413Z,-8.65
2023-01-11T01:07:51.642Z,-8.68
2023-01-11T01:10:19.481Z,-8.70
2023-01-11T01:13:05.272Z,-8.30
2023-01-11T01:15:32.980Z,-8.21
2023-01-11T01:18:00.283Z,-8.20
2023-01-11T01:20:27.514Z,-8.18
2023-01-11T01:22:54.953Z,-8.27
2023-01-11T01:25:22.281Z,-8.30
2023-01-11T01:27:49.520Z,-8.32
2023-01-11T01:30:16.953Z,-8.26
2023-01-11T01:32:44.165Z,-8.35
2023-01-11T01:35:11.314Z,-8.32
2023-01-11T01:37:38.548Z,-8.34
2023-01-11T01:40:06.746Z,-8.33
2023-01-11T01:42:33.949Z,-8.41
2023-01-11T01:45:14.643Z,-8.39
2023-01-11T01:47:47.573Z,-8.33
2023-01-11T01:50:33.298Z,-8.29
2023-01-11T01:53:21.873Z,-8.26
2023-01-11T01:55:53.802Z,-8.32
2023-01-11T01:58:23.251Z,-8.24
2023-01-11T02:00:50.433Z,-8.28
2023-01-11T02:03:19.894Z,-8.24
2023-01-11T02:05:47.054Z,-8.23
2023-01-11T02:08:33.756Z,-8.26
2023-01-11T02:11:01.021Z,-8.28
2023-01-11T02:13:28.456Z,-8.24
2023-01-11T02:16:16.604Z,-8.24
2023-01-11T02:18:43.839Z,-8.23
2023-01-11T02:21:25.951Z,-8.23
2023-01-11T02:24:16.410Z,-8.24
2023-01-11T02:27:25.473Z,-8.23
2023-01-11T02:30:25.943Z,-8.19
2023-01-11T02:33:11.517Z,-8.28
2023-01-11T02:36:07.125Z,-8.35
2023-01-11T02:38:40.077Z,-8.39
2023-01-11T02:41:20.228Z,-8.36
2023-01-11T02:44:24.674Z,-8.43
2023-01-11T02:46:57.247Z,-8.38
2023-01-11T02:49:27.049Z,-8.38
2023-01-11T02:52:01.401Z,-8.45
2023-01-11T02:54:28.611Z,-8.43
2023-01-11T02:56:57.384Z,-8.39
2023-01-11T02:59:32.547Z,-8.23
2023-01-11T03:01:59.974Z,-8.26
2023-01-11T03:04:32.402Z,-8.26
2023-01-11T03:07:20.530Z,-8.26
2023-01-11T03:10:09.705Z,-8.28
2023-01-11T03:12:55.095Z,-8.29
2023-01-11T03:15:28.409Z,-8.26
2023-01-11T03:18:33.583Z,-8.19
2023-01-11T03:21:09.964Z,-8.25
2023-01-11T03:24:06.652Z,-8.10
2023-01-11T03:26:36.947Z,-8.11
2023-01-11T03:29:13.412Z,-8.09
2023-01-11T03:31:54.211Z,-8.18
2023-01-11T03:34:44.942Z,-8.29
2023-01-11T03:37:16.761Z,-8.27
2023-01-11T03:39:57.121Z,-8.27
2023-01-11T03:42:24.303Z,-8.23
2023-01-11T03:44:53.472Z,-8.27
2023-01-11T03:47:22.957Z,-8.32
2023-01-11T03:50:12.277Z,-8.25
2023-01-11T03:52:41.657Z,-8.20
2023-01-11T03:55:10.109Z,-8.15
2023-01-11T03:57:40.139Z,-8.17
2023-01-11T04:00:08.563Z,-8.15
2023-01-11T04:02:42.534Z,-8.18
2023-01-11T04:05:10.092Z,-8.16
2023-01-11T04:07:37.347Z,-8.10
2023-01-11T04:10:05.670Z,-8.11
2023-01-11T04:12:33.244Z,-8.16
2023-01-11T04:15:03.329Z,-8.18
2023-01-11T04:17:30.463Z,-8.19
2023-01-11T04:19:58.638Z,-8.18
2023-01-11T04:22:26.070Z,-8.12
2023-01-11T04:24:53.282Z,-8.09
2023-01-11T04:27:20.439Z,-8.10
2023-01-11T04:29:47.618Z,-8.14
2023-01-11T04:32:14.979Z,-8.09
2023-01-11T04:34:42.260Z,-8.15
2023-01-11T04:37:09.808Z,-8.14
2023-01-11T04:39:37.010Z,-8.11
2023-01-11T04:42:19.883Z,-8.05
2023-01-11T04:44:49.269Z,-8.04
2023-01-11T04:47:17.319Z,-8.06
2023-01-11T04:49:45.078Z,-8.14
2023-01-11T04:52:13.168Z,-8.07
2023-01-11T04:54:40.456Z,-7.97
2023-01-11T04:57:07.835Z,-7.98
2023-01-11T04:59:35.294Z,-7.96
2023-01-11T05:02:02.428Z,-8.02
2023-01-11T05:04:29.605Z,-8.06
2023-01-11T05:06:56.914Z,-8.08
2023-01-11T05:09:24.194Z,-8.10
2023-01-11T05:11:51.431Z,-8.07
2023-01-11T05:14:18.748Z,-8.02
2023-01-11T05:16:46.252Z,-7.99
2023-01-11T05:19:13.752Z,-8.00
2023-01-11T05:21:41.561Z,-7.98
2023-01-11T05:24:12.292Z,-7.93
2023-01-11T05:26:41.334Z,-7.96
2023-01-11T05:29:10.994Z,-7.92
2023-01-11T12:44:00.532Z,-2.09
2023-01-11T12:46:30.768Z,-1.40
2023-01-11T12:49:42.352Z,-1.08
2023-01-11T12:52:45.001Z,-0.93
2023-01-11T12:55:46.549Z,-0.79
2023-01-11T12:58:55.777Z,-0.70
2023-01-11T13:01:59.235Z,-0.76
2023-01-11T13:04:31.011Z,-0.92
2023-01-11T13:07:23.702Z,-0.89
2023-01-11T13:10:16.204Z,-0.75
2023-01-11T13:12:47.416Z,-0.67
2023-01-11T13:15:45.242Z,-0.59
2023-01-11T13:18:20.106Z,-0.64
2023-01-11T13:21:01.822Z,-0.65
2023-01-11T13:23:54.970Z,-0.72
2023-01-11T13:26:31.176Z,-0.78
2023-01-11T13:29:04.989Z,-0.99
2023-01-11T13:31:33.317Z,-1.19
2023-01-11T13:34:40.932Z,-1.23
2023-01-11T13:37:12.909Z,-1.07
2023-01-11T13:39:40.507Z,-1.15
2023-01-11T13:42:17.437Z,-1.29
2023-01-11T13:45:16.326Z,-1.49
2023-01-11T13:47:49.239Z,-1.63
2023-01-11T13:50:25.904Z,-1.39
2023-01-11T13:53:10.120Z,-1.36
2023-01-11T13:55:47.262Z,-1.49
2023-01-11T13:58:18.780Z,-1.76
2023-01-11T14:00:51.570Z,-1.90
2023-01-11T14:03:26.206Z,-1.97
2023-01-11T14:06:07.764Z,-1.86
2023-01-11T14:08:45.025Z,-1.71
2023-01-11T14:12:04.092Z,-1.67
2023-01-11T14:14:36.580Z,-1.99
2023-01-11T14:17:13.955Z,-2.06
2023-01-11T14:19:47.420Z,-2.09
2023-01-11T14:22:42.062Z,-1.98
2023-01-11T14:25:21.162Z,-1.84
2023-01-11T14:28:00.999Z,-1.90
2023-01-11T14:30:54.985Z,-2.16
2023-01-11T14:33:41.354Z,-2.18
2023-01-11T14:36:32.094Z,-2.19
2023-01-11T14:39:21.018Z,-2.21
2023-01-11T14:42:30.751Z,-2.03
2023-01-11T14:44:58.795Z,-2.12
2023-01-11T14:47:32.469Z,-2.30
2023-01-11T14:50:11.758Z,-2.36
2023-01-11T14:52:40.608Z,-2.44
2023-01-11T14:55:19.448Z,-2.48
2023-01-11T14:57:55.932Z,-2.54
2023-01-11T15:00:43.090Z,-2.48
2023-01-11T15:03:11.130Z,-2.43
2023-01-11T15:05:43.462Z,-2.58
2023-01-11T15:08:17.271Z,-2.69
2023-01-11T15:11:00.025Z,-2.70
2023-01-11T15:13:33.061Z,-2.80
2023-01-11T15:16:40.669Z,-2.86
2023-01-11T15:19:09.269Z,-2.85
2023-01-11T15:21:41.096Z,-2.86
2023-01-11T15:24:26.444Z,-2.98
2023-01-11T15:26:54.098Z,-3.06
2023-01-11T15:29:41.724Z,-3.08
2023-01-11T15:32:41.775Z,-3.14
2023-01-11T15:35:25.438Z,-3.12
2023-01-11T15:38:15.709Z,-3.15
2023-01-11T15:40:44.093Z,-3.23
2023-01-11T15:43:30.177Z,-3.27
2023-01-11T15:46:34.204Z,-3.20
2023-01-11T15:49:19.899Z,-3.26
2023-01-11T15:52:05.485Z,-3.28
2023-01-11T15:55:03.954Z,-3.28
2023-01-11T15:57:54.096Z,-3.31
2023-01-11T16:00:33.741Z,-3.45
2023-01-11T16:03:18.083Z,-3.41
2023-01-11T16:06:17.240Z,-3.36
2023-01-11T16:09:15.907Z,-3.47
2023-01-11T16:11:43.543Z,-3.38
2023-01-11T16:14:29.215Z,-3.39
2023-01-11T16:16:56.446Z,-3.41
2023-01-11T16:19:25.743Z,-3.41
2023-01-11T16:21:55.863Z,-3.44
2023-01-11T16:24:27.014Z,-3.49
2023-01-11T16:26:56.626Z,-3.52
2023-01-11T16:29:25.986Z,-3.50
2023-01-11T16:31:59.379Z,-3.54
2023-01-11T16:34:29.107Z,-3.50
2023-01-11T16:36:58.029Z,-3.48
2023-01-11T16:39:26.717Z,-3.40
2023-01-11T16:42:06.177Z,-3.41
2023-01-11T16:44:56.040Z,-3.44
2023-01-11T16:47:23.398Z,-3.30
2023-01-11T16:50:21.665Z,-3.46
2023-01-11T16:52:59.979Z,-3.54
2023-01-11T16:55:32.751Z,-3.43
2023-01-11T16:58:25.899Z,-3.37
2023-01-11T17:01:09.111Z,-3.32
2023-01-11T17:03:49.490Z,-3.35
2023-01-11T17:06:19.234Z,-3.28
2023-01-11T17:08:47.507Z,-3.25
2023-01-11T17:11:37.396Z,-3.19
2023-01-11T17:14:31.064Z,-3.07
2023-01-11T17:17:00.330Z,-3.20
2023-01-11T17:19:31.421Z,-3.18
2023-01-11T17:21:58.610Z,-3.11
2023-01-11T17:24:26.360Z,-3.11
2023-01-11T17:26:56.489Z,-3.16
2023-01-11T17:29:30.244Z,-3.10
2023-01-11T17:31:57.337Z,-3.16
2023-01-11T17:34:37.375Z,-3.08
2023-01-11T17:37:11.329Z,-3.11
2023-01-11T17:39:40.333Z,-3.20
2023-01-11T17:42:26.576Z,-3.09
2023-01-11T17:45:13.115Z,-3.08
2023-01-11T17:47:47.378Z,-3.09
2023-01-11T17:50:36.671Z,-3.15
2023-01-11T17:53:40.275Z,-3.01
2023-01-11T17:56:10.010Z,-2.98
2023-01-11T17:58:37.957Z,-2.99
2023-01-11T18:01:07.936Z,-2.89
2023-01-11T18:03:48.256Z,-2.88
2023-01-11T18:06:25.969Z,-2.91
2023-01-11T18:08:54.545Z,-2.83
2023-01-11T18:11:36.239Z,-2.84
2023-01-11T18:14:06.182Z,-2.84
2023-01-11T18:16:33.665Z,-2.78
2023-01-11T18:19:01.110Z,-2.84
2023-01-11T18:21:41.663Z,-2.83
2023-01-11T18:24:12.150Z,-2.64
2023-01-11T18:26:43.803Z,-2.51
2023-01-11T18:29:43.855Z,-2.60
2023-01-11T18:32:12.040Z,-2.52
2023-01-11T18:34:39.905Z,-2.51
2023-01-11T18:37:07.254Z,-2.49
2023-01-11T18:39:34.946Z,-2.43
2023-01-11T18:42:09.036Z,-2.34
2023-01-11T18:44:37.901Z,-2.32
2023-01-11T18:47:19.554Z,-2.37
2023-01-11T18:49:47.028Z,-2.30
2023-01-11T18:52:14.460Z,-2.25
2023-01-11T18:54:42.232Z,-2.23
2023-01-11T18:57:11.816Z,-2.19
2023-01-11T18:59:39.409Z,-2.09
2023-01-11T19:02:17.273Z,-2.16
2023-01-11T19:04:45.187Z,-2.09
2023-01-11T19:07:12.594Z,-2.14
2023-01-11T19:09:39.837Z,-2.01
2023-01-11T19:12:07.286Z,-1.98
2023-01-11T19:14:34.443Z,-1.97
2023-01-11T19:17:01.659Z,-2.01
2023-01-11T19:19:28.943Z,-1.98
2023-01-11T19:21:56.294Z,-1.91
2023-01-11T19:24:23.507Z,-1.87
2023-01-11T19:26:50.737Z,-1.83
2023-01-11T19:29:19.024Z,-1.79
2023-01-11T19:31:48.596Z,-1.85
2023-01-11T19:34:15.946Z,-1.91
2023-01-11T19:36:43.615Z,-1.88
2023-01-11T19:39:10.991Z,-1.87
2023-01-11T19:41:56.902Z,-1.82
2023-01-11T19:44:26.878Z,-1.76
2023-01-11T19:47:09.597Z,-1.79
2023-01-11T19:49:37.729Z,-1.67
2023-01-11T19:52:05.870Z,-1.63
2023-01-11T19:54:33.336Z,-1.66
2023-01-11T19:57:00.656Z,-1.62
2023-01-11T19:59:27.857Z,-1.59
2023-01-11T20:01:55.071Z,-1.68
2023-01-11T20:04:22.388Z,-1.66
2023-01-11T20:06:53.986Z,-1.58
2023-01-11T20:09:21.886Z,-1.57
2023-01-11T20:11:49.620Z,-1.54
2023-01-11T20:14:17.315Z,-1.46
2023-01-11T20:16:44.627Z,-1.51
2023-01-11T20:19:12.226Z,-1.47
2023-01-11T20:21:39.482Z,-1.42
2023-01-11T20:24:06.963Z,-1.43
2023-01-11T20:26:34.468Z,-1.48
2023-01-11T20:29:01.974Z,-1.48
2023-01-11T20:31:32.485Z,-1.49
2023-01-11T20:34:00.446Z,-1.41
2023-01-11T20:36:27.643Z,-1.47
2023-01-11T20:38:55.307Z,-1.55
2023-01-11T20:41:42.876Z,-1.46
2023-01-11T20:44:10.597Z,-1.49
2023-01-11T20:46:37.924Z,-1.39
2023-01-11T20:49:05.559Z,-1.40
2023-01-11T20:51:32.834Z,-1.36
2023-01-11T20:54:00.053Z,-1.33
2023-01-11T20:56:27.311Z,-1.31
2023-01-11T20:58:54.546Z,-1.28
2023-01-11T21:01:27.673Z,-1.26
2023-01-11T21:03:55.308Z,-1.29
2023-01-11T21:06:22.556Z,-1.34
2023-01-11T21:08:49.737Z,-1.35
2023-01-11T21:11:17.016Z,-1.36
2023-01-11T21:13:44.270Z,-1.34
2023-01-11T21:16:13.389Z,-1.44
2023-01-11T21:18:43.748Z,-1.45
2023-01-11T21:21:18.442Z,-1.44
2023-01-11T21:23:46.172Z,-1.47
2023-01-11T21:26:14.842Z,-1.49
2023-01-11T21:28:42.181Z,-1.46
2023-01-11T21:31:10.944Z,-1.51
2023-01-11T21:33:39.525Z,-1.49
2023-01-11T21:36:18.175Z,-1.52
2023-01-11T21:38:45.354Z,-1.54
2023-01-11T21:41:17.267Z,-1.49
2023-01-11T21:43:45.223Z,-1.44
2023-01-11T21:46:12.757Z,-1.47
2023-01-11T21:48:41.632Z,-1.50
2023-01-11T21:51:15.697Z,-1.53
2023-01-11T21:53:44.121Z,-1.49
2023-01-11T21:56:14.481Z,-1.49
2023-01-11T21:58:41.624Z,-1.44
2023-01-11T22:01:12.483Z,-1.51
2023-01-11T22:03:42.478Z,-1.56
2023-01-11T22:06:09.999Z,-1.51
2023-01-11T22:08:38.262Z,-1.49
2023-01-11T22:11:06.261Z,-1.49
2023-01-11T22:13:35.155Z,-1.49
2023-01-11T22:16:03.743Z,-1.51
2023-01-11T22:18:31.179Z,-1.51
2023-01-11T22:21:08.274Z,-1.50
2023-01-11T22:23:35.515Z,-1.56
2023-01-11T22:26:04.621Z,-1.56
2023-01-11T22:28:31.933Z,-1.65
2023-01-11T22:31:06.029Z,-1.73
2023-01-11T22:33:33.406Z,-1.73
2023-01-11T22:36:00.646Z,-1.65
2023-01-11T22:38:27.845Z,-1.71
2023-01-11T22:40:55.116Z,-1.76
2023-01-11T22:43:22.358Z,-1.83
2023-01-11T22:45:59.559Z,-1.93
2023-01-11T22:48:26.988Z,-1.93
2023-01-11T22:50:55.224Z,-1.89
2023-01-11T22:53:22.518Z,-1.80
2023-01-11T22:55:49.775Z,-1.79
2023-01-11T22:58:17.039Z,-1.84
2023-01-11T23:00:44.235Z,-1.92
2023-01-11T23:03:11.460Z,-2.06
2023-01-11T23:05:44.809Z,-2.02
2023-01-11T23:08:14.037Z,-2.01
2023-01-11T23:10:41.395Z,-1.97
2023-01-11T23:13:29.104Z,-2.02
2023-01-11T23:15:56.421Z,-2.08
2023-01-11T23:18:23.735Z,-1.98
2023-01-11T23:20:50.959Z,-1.97
2023-01-11T23:23:18.160Z,-1.95
2023-01-11T23:25:45.392Z,-1.95
2023-01-11T23:28:12.660Z,-2.07
2023-01-11T23:30:39.993Z,-2.06
2023-01-11T23:33:07.167Z,-2.02
2023-01-11T23:35:34.371Z,-2.01
2023-01-11T23:38:01.570Z,-1.99
2023-01-11T23:40:28.804Z,-2.12
2023-01-11T23:42:56.018Z,-2.19
2023-01-11T23:45:23.167Z,-2.15
2023-01-11T23:47:50.351Z,-2.17
2023-01-11T23:50:17.649Z,-2.25
2023-01-11T23:52:44.839Z,-2.31
2023-01-11T23:55:14.166Z,-2.18
2023-01-11T23:58:01.822Z,-2.13
